createdAt,value
2023-05-07T00:01:27.254Z,88.43
2023-05-07T00:03:54.108Z,90.70
2023-05-07T00:06:21.104Z,91.00
2023-05-07T00:08:47.764Z,89.78
2023-05-07T00:11:14.470Z,87.90
2023-05-07T00:13:41.115Z,88.93
2023-05-07T00:16:07.789Z,90.10
2023-05-07T00:18:34.560Z,88.38
2023-05-07T00:21:01.151Z,89.47
2023-05-07T00:23:27.832Z,87.85
2023-05-07T00:25:54.422Z,89.15
2023-05-07T00:28:27.563Z,89.43
2023-05-07T00:30:54.179Z,89.03
2023-05-07T00:33:21.828Z,88.55
2023-05-07T00:35:48.572Z,90.57
2023-05-07T00:38:15.789Z,89.00
2023-05-07T00:40:42.436Z,88.57
2023-05-07T00:43:09.905Z,88.07
2023-05-07T00:45:36.617Z,88.65
2023-05-07T00:48:04.138Z,89.13
2023-05-07T00:50:31.739Z,89.82
2023-05-07T00:52:58.760Z,88.47
2023-05-07T00:55:25.419Z,88.50
2023-05-07T00:57:52.232Z,88.75
2023-05-07T01:00:20.735Z,89.72
2023-05-07T01:02:47.706Z,88.68
2023-05-07T01:05:17.719Z,89.13
2023-05-07T01:07:45.454Z,90.93
2023-05-07T01:10:13.392Z,89.75
2023-05-07T01:12:41.686Z,87.90
2023-05-07T01:15:09.916Z,90.15
2023-05-07T01:17:42.200Z,93.25
2023-05-07T01:20:11.368Z,91.25
2023-05-07T01:22:39.632Z,88.65
2023-05-07T01:25:08.249Z,88.63
2023-05-07T01:27:36.451Z,89.68
2023-05-07T01:30:04.250Z,89.10
2023-05-07T01:32:44.987Z,88.28
2023-05-07T01:35:14.749Z,94.43
2023-05-07T01:37:42.110Z,91.78
2023-05-07T01:40:09.772Z,89.55
2023-05-07T01:42:36.760Z,88.78
2023-05-07T01:45:03.559Z,89.70
2023-05-07T01:47:31.086Z,95.93
2023-05-07T01:49:58.312Z,89.28
2023-05-07T01:52:26.152Z,87.72
2023-05-07T01:54:52.788Z,90.45
2023-05-07T01:57:19.427Z,88.97
2023-05-07T01:59:46.337Z,88.93
2023-05-07T02:02:13.034Z,88.40
2023-05-07T02:04:39.762Z,88.63
2023-05-07T02:07:06.436Z,87.95
2023-05-07T02:09:33.065Z,94.47
2023-05-07T02:11:59.647Z,90.60
2023-05-07T02:14:27.029Z,88.75
2023-05-07T02:16:53.749Z,90.00
2023-05-07T02:19:22.091Z,91.22
2023-05-07T02:21:49.064Z,88.47
2023-05-07T02:24:15.894Z,90.55
2023-05-07T02:26:42.569Z,89.78
2023-05-07T02:29:09.209Z,89.05
2023-05-07T02:31:35.970Z,89.35
2023-05-07T02:34:02.817Z,89.55
2023-05-07T02:36:29.669Z,89.80
2023-05-07T02:38:56.314Z,91.35
2023-05-07T02:41:22.952Z,88.25
2023-05-07T02:43:49.638Z,90.28
2023-05-07T02:46:16.844Z,89.15
2023-05-07T02:48:43.963Z,90.10
2023-05-07T02:51:10.852Z,89.90
2023-05-07T02:53:37.676Z,89.88
2023-05-07T02:56:04.575Z,88.63
2023-05-07T02:58:31.338Z,89.68
2023-05-07T03:00:58.280Z,90.57
2023-05-07T03:03:25.051Z,90.72
2023-05-07T03:05:51.735Z,89.10
2023-05-07T03:08:18.412Z,89.93
2023-05-07T03:10:45.104Z,92.70
2023-05-07T03:13:11.792Z,90.30
2023-05-07T03:15:38.484Z,90.68
2023-05-07T03:18:05.255Z,89.80
2023-05-07T03:20:32.280Z,89.22
2023-05-07T03:22:59.085Z,90.20
2023-05-07T03:25:25.963Z,90.70
2023-05-07T03:27:52.600Z,89.05
2023-05-07T03:30:19.888Z,89.13
2023-05-07T03:32:46.811Z,88.65
2023-05-07T03:35:13.497Z,92.20
2023-05-07T03:37:40.419Z,88.35
2023-05-07T03:40:08.579Z,89.03
2023-05-07T03:42:35.490Z,91.18
2023-05-07T03:45:02.132Z,89.50
2023-05-07T03:47:28.761Z,88.47
2023-05-07T03:49:56.138Z,89.15
2023-05-07T03:52:26.764Z,88.35
2023-05-07T03:54:54.346Z,89.05
2023-05-07T03:57:21.651Z,90.05
2023-05-07T03:59:48.391Z,88.53
2023-05-07T04:02:15.157Z,90.25
2023-05-07T04:04:41.928Z,88.85
2023-05-07T04:07:08.539Z,88.70
2023-05-07T04:09:35.183Z,89.68
2023-05-07T04:12:02.347Z,88.75
2023-05-07T04:14:29.047Z,93.43
2023-05-07T04:16:55.776Z,89.65
2023-05-07T04:19:24.573Z,89.75
2023-05-07T04:21:51.244Z,89.40
2023-05-07T04:24:17.938Z,89.50
2023-05-07T04:26:44.640Z,90.63
2023-05-07T04:29:11.238Z,91.32
2023-05-07T04:31:37.929Z,88.10
2023-05-07T04:34:04.549Z,90.63
2023-05-07T04:36:31.787Z,90.20
2023-05-07T04:38:58.384Z,89.32
2023-05-07T04:41:25.028Z,90.93
2023-05-07T04:43:52.505Z,88.72
2023-05-07T04:46:19.163Z,88.82
2023-05-07T04:48:45.840Z,88.85
2023-05-07T04:51:12.465Z,88.93
2023-05-07T04:53:39.156Z,88.53
2023-05-07T04:56:06.304Z,89.18
2023-05-07T04:58:33.131Z,89.25
2023-05-07T05:01:01.367Z,89.57
2023-05-07T05:03:28.320Z,88.68
2023-05-07T05:05:55.104Z,89.10
2023-05-07T05:08:21.816Z,89.25
2023-05-07T05:10:50.725Z,90.00
2023-05-07T05:13:17.675Z,88.47
2023-05-07T05:15:44.514Z,89.10
2023-05-07T05:18:11.194Z,89.45
2023-05-07T05:20:37.931Z,88.13
2023-05-07T05:23:04.568Z,88.90
2023-05-07T05:25:31.590Z,87.53
2023-05-07T05:27:58.202Z,88.38
2023-05-07T05:30:24.845Z,88.88
2023-05-07T05:32:51.734Z,91.68
2023-05-07T05:35:18.361Z,88.35
2023-05-07T05:37:44.993Z,88.43
2023-05-07T05:40:12.321Z,92.70
2023-05-07T05:42:39.096Z,88.13
2023-05-07T05:45:06.351Z,89.15
2023-05-07T05:47:33.082Z,90.22
2023-05-07T05:49:59.860Z,87.65
2023-05-07T05:52:26.520Z,87.13
2023-05-07T05:54:53.218Z,88.35
2023-05-07T05:57:19.989Z,87.72
2023-05-07T05:59:48.268Z,87.55
2023-05-07T06:02:15.012Z,87.40
2023-05-07T06:04:41.897Z,90.32
2023-05-07T06:07:08.593Z,88.75
2023-05-07T06:09:35.226Z,88.68
2023-05-07T06:12:01.938Z,88.10
2023-05-07T06:14:28.556Z,90.30
2023-05-07T06:16:55.396Z,88.25
2023-05-07T06:19:24.813Z,92.53
2023-05-07T06:21:51.562Z,89.53
2023-05-07T06:24:18.227Z,88.22
2023-05-07T06:26:44.836Z,87.03
2023-05-07T06:29:11.575Z,89.60
2023-05-07T06:31:38.284Z,87.18
2023-05-07T06:34:04.921Z,88.22
2023-05-07T06:36:31.706Z,87.50
2023-05-07T06:38:58.360Z,87.22
2023-05-07T06:41:25.161Z,87.93
2023-05-07T06:43:51.750Z,87.70
2023-05-07T06:46:18.539Z,87.18
2023-05-07T06:48:45.289Z,88.40
2023-05-07T06:51:11.917Z,87.53
2023-05-07T06:53:38.497Z,87.63
2023-05-07T06:56:05.488Z,87.32
2023-05-07T06:58:32.124Z,88.00
2023-05-07T07:00:58.953Z,87.77
2023-05-07T07:03:25.865Z,87.03
2023-05-07T07:05:54.125Z,87.50
2023-05-07T07:08:22.330Z,86.72
2023-05-07T07:10:49.279Z,86.63
2023-05-07T07:13:15.965Z,86.32
2023-05-07T07:15:42.715Z,88.28
2023-05-07T07:18:09.485Z,86.82
2023-05-07T07:20:36.116Z,86.95
2023-05-07T07:23:02.780Z,87.57
2023-05-07T07:25:29.425Z,86.40
2023-05-07T07:27:56.048Z,87.55
2023-05-07T07:30:22.735Z,87.40
2023-05-07T07:32:49.360Z,86.93
2023-05-07T07:35:16.031Z,87.47
2023-05-07T07:37:42.644Z,88.95
2023-05-07T07:40:10.372Z,86.87
2023-05-07T07:42:37.235Z,87.38
2023-05-07T07:45:04.327Z,93.07
2023-05-07T07:47:31.074Z,88.38
2023-05-07T07:49:57.926Z,91.33
2023-05-07T07:52:24.616Z,89.30
2023-05-07T07:54:51.244Z,86.90
2023-05-07T07:57:17.877Z,86.17
2023-05-07T07:59:44.614Z,86.75
2023-05-07T08:02:11.337Z,87.78
2023-05-07T08:04:38.706Z,86.33
2023-05-07T08:07:05.589Z,86.85
2023-05-07T08:09:32.183Z,87.67
2023-05-07T08:11:59.044Z,87.53
2023-05-07T08:14:25.885Z,85.70
2023-05-07T08:16:52.518Z,86.15
2023-05-07T08:19:19.135Z,86.43
2023-05-07T08:21:45.937Z,86.20
2023-05-07T08:24:12.775Z,86.70
2023-05-07T08:26:40.405Z,86.45
2023-05-07T08:29:07.288Z,85.40
2023-05-07T08:31:34.086Z,89.77
2023-05-07T08:34:00.981Z,87.90
2023-05-07T08:36:27.648Z,88.10
2023-05-07T08:38:54.443Z,86.57
2023-05-07T08:41:21.302Z,86.47
2023-05-07T08:43:51.272Z,85.07
2023-05-07T08:46:20.486Z,91.53
2023-05-07T08:48:51.077Z,90.80
2023-05-07T08:51:19.908Z,86.00
2023-05-07T08:53:49.250Z,85.27
2023-05-07T08:56:16.892Z,84.90
2023-05-07T08:58:44.702Z,86.00
2023-05-07T09:01:14.851Z,86.57
2023-05-07T09:03:42.750Z,85.37
2023-05-07T09:06:09.461Z,84.87
2023-05-07T09:08:36.783Z,85.60
2023-05-07T09:11:03.939Z,85.17
2023-05-07T09:13:31.137Z,84.40
2023-05-07T09:15:57.818Z,85.70
2023-05-07T09:18:27.483Z,84.97
2023-05-07T09:20:54.116Z,84.17
2023-05-07T09:23:21.918Z,92.60
2023-05-07T09:25:48.518Z,84.50
2023-05-07T09:28:15.286Z,84.90
2023-05-07T09:30:41.899Z,84.60
2023-05-07T09:33:08.610Z,85.17
2023-05-07T09:35:35.293Z,84.67
2023-05-07T09:38:04.440Z,84.83
2023-05-07T09:40:32.007Z,83.57
2023-05-07T09:43:11.218Z,84.90
2023-05-07T09:45:38.425Z,82.10
2023-05-07T09:48:07.775Z,85.50
2023-05-07T09:50:38.747Z,83.87
2023-05-07T09:53:05.947Z,81.90
2023-05-07T09:55:32.637Z,83.37
2023-05-07T09:58:00.544Z,83.33
2023-05-07T10:00:28.672Z,83.53
2023-05-07T10:02:58.606Z,83.27
2023-05-07T10:05:26.261Z,82.10
2023-05-07T10:07:55.011Z,84.47
2023-05-07T10:10:22.909Z,84.50
2023-05-07T10:12:50.727Z,81.60
2023-05-07T10:15:18.106Z,81.77
2023-05-07T10:17:45.930Z,82.30
2023-05-07T10:20:12.832Z,82.50
2023-05-07T10:22:45.699Z,81.47
2023-05-07T10:25:33.374Z,82.40
2023-05-07T10:28:08.369Z,81.13
2023-05-07T10:31:08.714Z,80.90
2023-05-07T10:33:37.318Z,81.67
2023-05-07T10:36:05.538Z,80.67
2023-05-07T10:38:32.506Z,80.13
2023-05-07T10:40:59.401Z,80.00
2023-05-07T10:43:26.153Z,80.33
2023-05-07T10:46:18.783Z,79.10
2023-05-07T10:49:07.313Z,79.93
2023-05-07T10:51:35.281Z,81.17
2023-05-07T10:54:10.808Z,78.67
2023-05-07T10:56:44.001Z,79.57
2023-05-07T10:59:28.173Z,80.07
2023-05-07T11:02:00.178Z,81.47
2023-05-07T11:04:28.316Z,79.87
2023-05-07T11:07:07.230Z,80.40
2023-05-07T11:09:52.446Z,78.73
2023-05-07T11:12:37.505Z,80.10
2023-05-07T11:15:08.160Z,81.27
2023-05-07T11:17:37.296Z,80.10
2023-05-07T11:20:05.588Z,78.93
2023-05-07T11:22:32.603Z,80.03
2023-05-07T11:25:04.016Z,78.87
2023-05-07T11:27:30.971Z,77.83
2023-05-07T11:29:57.940Z,79.20
2023-05-07T11:32:30.858Z,78.70
2023-05-07T11:34:59.283Z,78.00
2023-05-07T11:37:27.766Z,78.27
2023-05-07T11:40:10.319Z,77.77
2023-05-07T11:42:44.126Z,78.17
2023-05-07T11:45:11.748Z,82.73
2023-05-07T11:47:38.731Z,80.87
2023-05-07T11:50:11.481Z,79.90
2023-05-07T11:52:40.092Z,79.90
2023-05-07T11:55:08.898Z,80.87
2023-05-07T11:57:36.212Z,83.90
2023-05-07T12:00:05.423Z,81.33
2023-05-07T12:02:32.524Z,79.10
2023-05-07T12:05:01.893Z,80.17
2023-05-07T12:07:28.604Z,81.17
2023-05-07T12:09:55.379Z,79.47
2023-05-07T12:12:22.013Z,80.83
2023-05-07T12:14:49.411Z,80.90
2023-05-07T12:17:17.325Z,80.20
2023-05-07T12:19:45.684Z,80.20
2023-05-07T12:22:12.900Z,79.30
2023-05-07T12:24:46.368Z,82.97
2023-05-07T12:27:13.693Z,81.47
2023-05-07T12:29:41.854Z,80.07
2023-05-07T12:32:17.981Z,79.80
2023-05-07T12:34:52.021Z,83.23
2023-05-07T12:37:25.789Z,80.47
2023-05-07T12:40:10.260Z,79.57
2023-05-07T12:42:37.864Z,81.23
2023-05-07T12:45:17.033Z,80.37
2023-05-07T12:47:48.223Z,83.83
2023-05-07T12:50:16.419Z,80.97
2023-05-07T12:52:45.376Z,80.07
2023-05-07T12:55:15.968Z,93.13
2023-05-07T12:57:44.805Z,79.83
2023-05-07T13:00:12.088Z,79.63
2023-05-07T13:02:40.388Z,79.90
2023-05-07T13:05:08.015Z,79.57
2023-05-07T13:07:34.927Z,80.47
2023-05-07T13:10:02.402Z,79.20
2023-05-07T13:12:29.164Z,79.70
2023-05-07T13:14:55.960Z,78.80
2023-05-07T13:17:22.795Z,78.77
2023-05-07T13:19:49.484Z,79.10
2023-05-07T13:22:16.119Z,80.37
2023-05-07T13:24:44.583Z,78.47
2023-05-07T13:27:11.366Z,79.50
2023-05-07T13:29:38.008Z,80.33
2023-05-07T13:32:05.017Z,78.43
2023-05-07T13:34:31.696Z,79.83
2023-05-07T13:36:58.460Z,78.97
2023-05-07T13:39:25.080Z,78.33
2023-05-07T13:41:51.861Z,78.73
2023-05-07T13:44:18.508Z,78.77
2023-05-07T13:46:45.163Z,79.77
2023-05-07T13:49:13.399Z,79.90
2023-05-07T13:51:40.000Z,79.03
2023-05-07T13:54:06.704Z,79.70
2023-05-07T13:56:33.409Z,84.17
2023-05-07T13:59:00.983Z,80.60
2023-05-07T14:01:28.274Z,80.80
2023-05-07T14:03:55.128Z,82.80
2023-05-07T14:06:22.782Z,82.83
2023-05-07T14:08:49.418Z,83.17
2023-05-07T14:11:16.074Z,80.20
2023-05-07T14:13:42.731Z,82.27
2023-05-07T14:16:09.448Z,78.70
2023-05-07T14:18:38.002Z,79.60
2023-05-07T14:21:07.073Z,80.07
2023-05-07T14:23:34.120Z,79.90
2023-05-07T14:26:00.774Z,80.80
2023-05-07T14:28:27.407Z,82.73
2023-05-07T14:30:54.062Z,81.57
2023-05-07T14:33:20.723Z,83.80
2023-05-07T14:35:49.673Z,82.73
2023-05-07T14:38:16.652Z,81.83
2023-05-07T14:40:43.513Z,80.90
2023-05-07T14:43:10.251Z,81.07
2023-05-07T14:45:36.902Z,82.10
2023-05-07T14:48:04.022Z,81.37
2023-05-07T14:50:30.837Z,82.20
2023-05-07T14:52:57.508Z,83.20
2023-05-07T14:55:24.199Z,80.93
2023-05-07T14:57:50.949Z,81.90
2023-05-07T15:00:17.748Z,80.57
2023-05-07T15:02:44.482Z,81.87
2023-05-07T15:05:11.416Z,83.40
2023-05-07T15:07:38.268Z,82.90
2023-05-07T15:10:05.399Z,81.50
2023-05-07T15:12:32.077Z,94.90
2023-05-07T15:14:58.796Z,82.90
2023-05-07T15:17:25.633Z,87.37
2023-05-07T15:19:54.390Z,82.30
2023-05-07T15:22:22.480Z,84.10
2023-05-07T15:24:49.170Z,83.63
2023-05-07T15:27:15.900Z,82.97
2023-05-07T15:29:43.962Z,82.50
2023-05-07T15:32:11.375Z,82.77
2023-05-07T15:34:38.174Z,81.67
2023-05-07T15:37:04.835Z,83.70
2023-05-07T15:39:31.903Z,81.83
2023-05-07T15:41:58.629Z,82.57
2023-05-07T15:44:29.558Z,84.40
2023-05-07T15:46:56.247Z,86.40
2023-05-07T15:49:23.114Z,84.73
2023-05-07T15:51:51.727Z,84.23
2023-05-07T15:54:20.940Z,84.30
2023-05-07T15:56:47.950Z,84.67
2023-05-07T15:59:16.381Z,90.10
2023-05-07T16:01:43.516Z,86.10
2023-05-07T16:04:10.824Z,86.10
2023-05-07T16:06:37.540Z,83.40
2023-05-07T16:09:04.211Z,84.37
2023-05-07T16:11:30.863Z,88.90
2023-05-07T16:13:57.565Z,85.23
2023-05-07T16:16:26.618Z,85.00
2023-05-07T16:18:53.327Z,87.23
2023-05-07T16:21:20.030Z,87.20
2023-05-07T16:23:46.947Z,93.33
2023-05-07T16:26:14.564Z,88.20
2023-05-07T16:28:41.218Z,87.80
2023-05-07T16:31:08.631Z,88.67
2023-05-07T16:33:36.025Z,88.65
2023-05-07T16:36:03.392Z,92.90
2023-05-07T16:38:33.024Z,88.88
2023-05-07T16:41:00.023Z,90.90
2023-05-07T16:43:26.852Z,89.63
2023-05-07T16:45:53.770Z,87.77
2023-05-07T16:48:21.237Z,89.00
2023-05-07T16:50:48.024Z,89.10
2023-05-07T16:53:14.877Z,88.78
2023-05-07T16:55:41.634Z,90.70
2023-05-07T16:58:11.307Z,89.40
2023-05-07T17:00:50.170Z,89.57
2023-05-07T17:03:18.846Z,91.05
2023-05-07T17:05:45.890Z,89.57
2023-05-07T17:08:13.639Z,93.95
2023-05-07T17:10:41.172Z,89.85
2023-05-07T17:13:07.922Z,92.18
2023-05-07T17:15:34.609Z,92.95
2023-05-07T17:18:01.311Z,89.47
2023-05-07T17:20:28.642Z,91.18
2023-05-07T17:22:55.643Z,89.93
2023-05-07T17:25:23.311Z,91.15
2023-05-07T17:27:50.494Z,91.53
2023-05-07T17:30:17.729Z,90.15
2023-05-07T17:32:44.406Z,91.05
2023-05-07T17:35:11.160Z,89.43
2023-05-07T17:37:37.948Z,89.63
2023-05-07T17:40:05.320Z,89.05
2023-05-07T17:42:32.071Z,90.28
2023-05-07T17:44:58.772Z,89.85
2023-05-07T17:47:25.443Z,92.43
2023-05-07T17:49:52.141Z,89.50
2023-05-07T17:52:18.733Z,89.72
2023-05-07T17:54:45.654Z,90.63
2023-05-07T17:57:12.300Z,88.67
2023-05-07T17:59:40.084Z,88.25
2023-05-07T18:02:06.952Z,90.78
2023-05-07T18:04:33.627Z,91.10
2023-05-07T18:07:00.317Z,88.97
2023-05-07T18:09:27.062Z,88.43
2023-05-07T18:11:53.925Z,88.75
2023-05-07T18:14:24.323Z,91.70
2023-05-07T18:16:51.256Z,89.70
2023-05-07T18:19:18.051Z,88.70
2023-05-07T18:21:44.678Z,92.35
2023-05-07T18:24:11.443Z,88.20
2023-05-07T18:26:38.211Z,90.40
2023-05-07T18:29:04.878Z,90.53
2023-05-07T18:31:31.513Z,92.65
2023-05-07T18:33:58.194Z,90.20
2023-05-07T18:36:25.062Z,97.28
2023-05-07T18:38:52.458Z,92.60
2023-05-07T18:41:19.159Z,90.47
2023-05-07T18:43:45.957Z,88.93
2023-05-07T18:46:12.738Z,89.38
2023-05-07T18:48:39.860Z,88.60
2023-05-07T18:51:08.369Z,90.20
2023-05-07T18:53:35.016Z,88.43
2023-05-07T18:56:01.794Z,89.68
2023-05-07T18:58:28.413Z,88.65
2023-05-07T19:00:55.843Z,90.95
2023-05-07T19:03:22.649Z,91.60
2023-05-07T19:05:49.334Z,94.10
2023-05-07T19:08:15.964Z,93.35
2023-05-07T19:10:42.651Z,90.57
2023-05-07T19:13:09.366Z,89.78
2023-05-07T19:15:36.061Z,90.93
2023-05-07T19:18:02.768Z,89.43
2023-05-07T19:20:29.781Z,89.57
2023-05-07T19:22:56.842Z,90.97
2023-05-07T19:25:23.680Z,90.03
2023-05-07T19:27:51.166Z,93.80
2023-05-07T19:30:18.009Z,93.80
2023-05-07T19:32:44.639Z,89.80
2023-05-07T19:35:11.577Z,94.15
2023-05-07T19:37:38.871Z,90.63
2023-05-07T19:40:06.550Z,90.40
2023-05-07T19:42:33.278Z,91.80
2023-05-07T19:45:00.114Z,94.20
2023-05-07T19:47:26.861Z,93.25
2023-05-07T19:49:53.664Z,93.57
2023-05-07T19:52:20.400Z,93.20
2023-05-07T19:54:47.230Z,94.32
2023-05-07T19:57:14.365Z,96.05
2023-05-07T19:59:41.164Z,91.80
2023-05-07T20:02:07.909Z,93.90
2023-05-07T20:04:38.043Z,90.90
2023-05-07T20:07:05.722Z,93.93
2023-05-07T20:09:32.538Z,94.25
2023-05-07T20:11:59.190Z,94.40
2023-05-07T20:14:27.232Z,96.60
2023-05-07T20:16:53.982Z,96.18
2023-05-07T20:19:20.791Z,93.07
2023-05-07T20:21:47.401Z,90.78
2023-05-07T20:24:14.299Z,91.45
2023-05-07T20:26:41.309Z,91.20
2023-05-07T20:29:08.077Z,92.95
2023-05-07T20:31:35.264Z,92.72
2023-05-07T20:34:02.533Z,93.20
2023-05-07T20:36:29.654Z,92.15
2023-05-07T20:38:56.311Z,95.45
2023-05-07T20:41:25.435Z,95.93
2023-05-07T20:43:52.295Z,97.75
2023-05-07T20:46:22.659Z,95.70
2023-05-07T20:48:49.995Z,96.53
2023-05-07T20:51:16.812Z,95.40
2023-05-07T20:53:48.023Z,97.25
2023-05-07T20:56:15.804Z,95.53
2023-05-07T20:58:42.411Z,95.72
2023-05-07T21:01:09.360Z,94.18
2023-05-07T21:03:36.177Z,101.13
2023-05-07T21:06:04.085Z,97.78
2023-05-07T21:08:30.960Z,95.25
2023-05-07T21:10:57.742Z,95.47
2023-05-07T21:13:24.592Z,101.20
2023-05-07T21:15:51.466Z,100.03
2023-05-07T21:18:19.066Z,100.80
2023-05-07T21:20:45.712Z,97.82
2023-05-07T21:23:12.317Z,101.80
2023-05-07T21:25:40.873Z,102.93
2023-05-07T21:28:08.776Z,102.13
2023-05-07T21:30:36.231Z,101.90
2023-05-07T21:33:03.056Z,104.10
2023-05-07T21:35:29.886Z,98.85
2023-05-07T21:37:56.523Z,103.60
2023-05-07T21:40:23.150Z,104.82
2023-05-07T21:42:49.785Z,105.88
2023-05-07T21:45:16.521Z,102.25
2023-05-07T21:47:43.175Z,102.28
2023-05-07T21:50:10.557Z,101.35
2023-05-07T21:52:37.798Z,102.43
2023-05-07T21:55:04.836Z,103.60
2023-05-07T21:57:31.591Z,98.63
2023-05-07T21:59:58.249Z,99.00
2023-05-07T22:02:25.755Z,98.32
2023-05-07T22:04:52.660Z,101.40
2023-05-07T22:07:19.313Z,97.65
2023-05-07T22:09:45.924Z,97.78
2023-05-07T22:12:12.616Z,98.47
2023-05-07T22:14:39.295Z,103.47
2023-05-07T22:17:05.920Z,103.40
2023-05-07T22:19:32.585Z,101.30
2023-05-07T22:21:59.877Z,98.15
2023-05-07T22:24:26.494Z,98.57
2023-05-07T22:26:53.166Z,94.80
2023-05-07T22:29:21.194Z,97.55
2023-05-07T22:31:47.839Z,96.35
2023-05-07T22:34:14.528Z,97.38
2023-05-07T22:36:41.252Z,99.97
2023-05-07T22:39:09.795Z,98.18
2023-05-07T22:41:36.662Z,95.82
2023-05-07T22:44:03.373Z,98.15
2023-05-07T22:46:30.203Z,96.45
2023-05-07T22:48:56.909Z,99.40
2023-05-07T22:51:23.562Z,98.05
2023-05-07T22:53:50.184Z,95.65
2023-05-07T22:56:16.864Z,95.65
2023-05-07T22:58:43.493Z,96.78
2023-05-07T23:01:18.645Z,95.93
2023-05-07T23:03:45.486Z,95.03
2023-05-07T23:06:12.661Z,98.35
2023-05-07T23:08:39.375Z,95.18
2023-05-07T23:11:06.174Z,94.80
2023-05-07T23:13:32.860Z,95.97
2023-05-07T23:15:59.460Z,97.63
2023-05-07T23:18:27.958Z,94.13
2023-05-07T23:20:54.948Z,95.03
2023-05-07T23:23:22.075Z,95.38
2023-05-07T23:25:52.354Z,95.85
2023-05-07T23:28:19.103Z,97.63
2023-05-07T23:30:45.884Z,97.68
2023-05-07T23:33:12.599Z,94.75
2023-05-07T23:35:39.175Z,98.82
2023-05-07T23:38:05.862Z,95.55
2023-05-07T23:40:32.452Z,97.72
2023-05-07T23:42:59.078Z,97.82
2023-05-07T23:45:25.753Z,95.35
2023-05-07T23:47:52.470Z,94.38
2023-05-07T23:50:19.182Z,95.18
2023-05-07T23:52:45.938Z,96.95
2023-05-07T23:55:13.712Z,97.75
2023-05-07T23:57:40.343Z,99.57
